createdAt,value
2016-08-22T00:00:23.685Z,1015.98
2016-08-22T00:01:23.708Z,1016.01
2016-08-22T00:02:23.735Z,1016.02
2016-08-22T00:03:23.768Z,1015.98
2016-08-22T00:04:23.784Z,1016
2016-08-22T00:05:23.808Z,1016
2016-08-22T00:06:23.834Z,1015.99
2016-08-22T00:07:23.859Z,1015.98
2016-08-22T00:08:23.893Z,1015.97
2016-08-22T00:09:23.909Z,1015.94
2016-08-22T00:10:23.934Z,1015.97
2016-08-22T00:11:23.958Z,1016
2016-08-22T00:12:23.982Z,1016.01
2016-08-22T00:13:24.007Z,1016.01
2016-08-22T00:15:24.057Z,1016.04
2016-08-22T00:16:24.082Z,1016.02
2016-08-22T00:17:24.109Z,1016.03
2016-08-22T00:18:24.133Z,1016.01
2016-08-22T00:19:24.157Z,1016
2016-08-22T00:20:24.184Z,1016
2016-08-22T00:21:24.256Z,1016
2016-08-22T00:22:24.231Z,1015.98
2016-08-22T00:23:24.256Z,1015.99
2016-08-22T00:24:24.281Z,1015.99
2016-08-22T00:25:24.306Z,1015.97
2016-08-22T00:26:24.330Z,1015.99
2016-08-22T00:27:24.355Z,1015.99
2016-08-22T00:28:24.381Z,1015.97
2016-08-22T00:29:24.405Z,1015.97
2016-08-22T00:31:24.458Z,1015.97
2016-08-22T00:32:24.483Z,1015.96
2016-08-22T00:33:24.505Z,1015.96
2016-08-22T00:34:24.530Z,1015.98
2016-08-22T00:35:24.557Z,1015.97
2016-08-22T00:36:24.582Z,1016
2016-08-22T00:37:24.605Z,1015.96
2016-08-22T00:38:24.632Z,1015.96
2016-08-22T00:39:24.655Z,1016.01
2016-08-22T00:40:24.679Z,1016.02
2016-08-22T00:41:24.704Z,1016.06
2016-08-22T00:42:24.729Z,1016.04
2016-08-22T00:43:24.759Z,1016.05
2016-08-22T00:44:24.781Z,1016.04
2016-08-22T00:46:24.830Z,1016.03
2016-08-22T00:47:24.854Z,1016.08
2016-08-22T00:48:24.879Z,1016.03
2016-08-22T00:49:24.907Z,1016.05
2016-08-22T00:50:24.929Z,1016.08
2016-08-22T00:51:24.954Z,1016.06
2016-08-22T00:52:24.981Z,1016.06
2016-08-22T00:53:25.004Z,1016.01
2016-08-22T00:54:25.031Z,1016
2016-08-22T00:55:25.053Z,1015.98
2016-08-22T00:56:25.080Z,1015.99
2016-08-22T00:57:25.106Z,1016.03
2016-08-22T00:58:25.130Z,1016.03
2016-08-22T00:59:25.159Z,1016.03
2016-08-22T01:00:25.178Z,1016.04
2016-08-22T01:01:25.205Z,1016.06
2016-08-22T01:02:25.229Z,1016.07
2016-08-22T01:03:25.254Z,1016.04
2016-08-22T01:04:25.279Z,1016.02
2016-08-22T01:05:25.304Z,1016.03
2016-08-22T01:06:25.329Z,1016
2016-08-22T01:07:25.357Z,1016.02
2016-08-22T01:08:25.379Z,1016.03
2016-08-22T01:09:25.401Z,1015.98
2016-08-22T01:10:25.426Z,1016.04
2016-08-22T01:11:25.452Z,1016.01
2016-08-22T01:12:25.478Z,1016.09
2016-08-22T01:13:25.501Z,1016.08
2016-08-22T01:14:25.528Z,1016.1
2016-08-22T01:15:25.552Z,1016.13
2016-08-22T01:16:25.575Z,1016.13
2016-08-22T01:18:25.627Z,1016.14
2016-08-22T01:19:25.658Z,1016.11
2016-08-22T01:20:25.675Z,1016.17
2016-08-22T01:21:25.701Z,1016.13
2016-08-22T01:22:25.727Z,1016.14
2016-08-22T01:23:25.750Z,1016.16
2016-08-22T01:24:25.774Z,1016.2
2016-08-22T01:25:25.798Z,1016.17
2016-08-22T01:26:25.824Z,1016.2
2016-08-22T01:27:25.849Z,1016.21
2016-08-22T01:28:25.877Z,1016.21
2016-08-22T01:29:25.900Z,1016.21
2016-08-22T01:30:25.925Z,1016.24
2016-08-22T01:31:25.950Z,1016.26
2016-08-22T01:32:25.974Z,1016.29
2016-08-22T01:34:26.024Z,1016.3
2016-08-22T01:35:26.048Z,1016.27
2016-08-22T01:36:26.074Z,1016.33
2016-08-22T01:37:26.097Z,1016.33
2016-08-22T01:38:26.121Z,1016.32
2016-08-22T01:39:26.146Z,1016.36
2016-08-22T01:40:26.174Z,1016.35
2016-08-22T01:41:26.196Z,1016.34
2016-08-22T01:42:26.220Z,1016.31
2016-08-22T01:43:26.246Z,1016.38
2016-08-22T01:44:26.272Z,1016.36
2016-08-22T01:45:26.298Z,1016.37
2016-08-22T01:46:26.321Z,1016.38
2016-08-22T01:47:26.344Z,1016.4
2016-08-22T01:48:26.370Z,1016.43
2016-08-22T01:50:26.418Z,1016.48
2016-08-22T01:51:26.444Z,1016.47
2016-08-22T01:52:26.471Z,1016.49
2016-08-22T01:53:26.494Z,1016.48
2016-08-22T01:54:26.519Z,1016.49
2016-08-22T01:55:26.544Z,1016.46
2016-08-22T01:56:26.568Z,1016.45
2016-08-22T01:57:26.592Z,1016.47
2016-08-22T01:58:26.619Z,1016.46
2016-08-22T01:59:26.642Z,1016.44
2016-08-22T02:00:26.669Z,1016.47
2016-08-22T02:01:26.691Z,1016.47
2016-08-22T02:02:26.717Z,1016.43
2016-08-22T02:03:26.746Z,1016.43
2016-08-22T02:04:26.768Z,1016.39
2016-08-22T02:06:26.815Z,1016.45
2016-08-22T02:07:26.842Z,1016.42
2016-08-22T02:08:26.867Z,1016.46
2016-08-22T02:09:26.892Z,1016.47
2016-08-22T02:10:26.918Z,1016.45
2016-08-22T02:11:26.939Z,1016.45
2016-08-22T02:12:26.967Z,1016.46
2016-08-22T02:13:26.992Z,1016.43
2016-08-22T02:14:27.017Z,1016.46
2016-08-22T02:15:27.040Z,1016.44
2016-08-22T02:16:27.063Z,1016.45
2016-08-22T02:17:27.091Z,1016.45
2016-08-22T02:18:27.115Z,1016.44
2016-08-22T02:19:27.141Z,1016.46
2016-08-22T02:21:27.188Z,1016.51
2016-08-22T02:22:27.265Z,1016.47
2016-08-22T02:23:27.239Z,1016.48
2016-08-22T02:24:27.264Z,1016.48
2016-08-22T02:25:27.290Z,1016.5
2016-08-22T02:26:27.314Z,1016.49
2016-08-22T02:27:27.337Z,1016.51
2016-08-22T02:28:27.412Z,1016.54
2016-08-22T02:29:27.386Z,1016.57
2016-08-22T02:30:27.411Z,1016.56
2016-08-22T02:31:27.436Z,1016.56
2016-08-22T02:32:27.462Z,1016.56
2016-08-22T02:33:27.488Z,1016.6
2016-08-22T02:34:27.511Z,1016.59
2016-08-22T02:35:27.534Z,1016.6
2016-08-22T02:36:27.560Z,1016.6
2016-08-22T02:37:27.583Z,1016.6
2016-08-22T02:38:27.610Z,1016.59
2016-08-22T02:39:27.636Z,1016.63
2016-08-22T02:40:27.657Z,1016.62
2016-08-22T02:41:27.683Z,1016.63
2016-08-22T02:42:27.708Z,1016.67
2016-08-22T02:43:27.733Z,1016.7
2016-08-22T02:44:27.756Z,1016.69
2016-08-22T02:45:27.783Z,1016.69
2016-08-22T02:46:27.805Z,1016.75
2016-08-22T02:47:27.833Z,1016.76
2016-08-22T02:48:27.857Z,1016.76
2016-08-22T02:49:27.882Z,1016.75
2016-08-22T02:50:27.907Z,1016.75
2016-08-22T02:51:27.929Z,1016.77
2016-08-22T02:53:27.981Z,1016.81
2016-08-22T02:54:28.005Z,1016.81
2016-08-22T02:55:28.028Z,1016.83
2016-08-22T02:56:28.053Z,1016.82
2016-08-22T02:57:28.087Z,1016.9
2016-08-22T02:58:28.103Z,1016.9
2016-08-22T02:59:28.127Z,1016.93
2016-08-22T03:00:28.153Z,1016.92
2016-08-22T03:01:28.178Z,1016.94
2016-08-22T03:02:28.201Z,1016.95
2016-08-22T03:03:28.228Z,1016.93
2016-08-22T03:04:28.253Z,1016.98
2016-08-22T03:05:28.278Z,1016.99
2016-08-22T03:06:28.302Z,1016.99
2016-08-22T03:07:28.326Z,1017.01
2016-08-22T03:09:28.374Z,1017.03
2016-08-22T03:10:28.400Z,1017.03
2016-08-22T03:11:28.425Z,1017.01
2016-08-22T03:12:28.450Z,1017.01
2016-08-22T03:13:28.472Z,1017.06
2016-08-22T03:14:28.499Z,1017.07
2016-08-22T03:15:28.524Z,1017.09
2016-08-22T03:16:28.547Z,1017.12
2016-08-22T03:17:28.570Z,1017.15
2016-08-22T03:18:28.596Z,1017.14
2016-08-22T03:19:28.621Z,1017.12
2016-08-22T03:20:28.652Z,1017.15
2016-08-22T03:21:28.671Z,1017.17
2016-08-22T03:22:28.695Z,1017.16
2016-08-22T03:23:28.768Z,1017.18
2016-08-22T03:25:28.768Z,1017.21
2016-08-22T03:26:28.792Z,1017.23
2016-08-22T03:27:28.825Z,1017.24
2016-08-22T03:28:28.843Z,1017.2
2016-08-22T03:29:28.866Z,1017.25
2016-08-22T03:30:28.891Z,1017.23
2016-08-22T03:31:28.969Z,1017.26
2016-08-22T03:32:28.939Z,1017.27
2016-08-22T03:33:28.965Z,1017.27
2016-08-22T03:34:28.989Z,1017.31
2016-08-22T03:35:29.015Z,1017.3
2016-08-22T03:36:29.038Z,1017.34
2016-08-22T03:37:29.064Z,1017.33
2016-08-22T03:38:29.087Z,1017.34
2016-08-22T03:39:29.113Z,1017.35
2016-08-22T03:41:29.163Z,1017.41
2016-08-22T03:42:29.186Z,1017.34
2016-08-22T03:43:29.209Z,1017.42
2016-08-22T03:44:29.236Z,1017.43
2016-08-22T03:45:29.259Z,1017.44
2016-08-22T03:46:29.283Z,1017.42
2016-08-22T03:47:29.308Z,1017.42
2016-08-22T03:48:29.332Z,1017.45
2016-08-22T03:49:29.359Z,1017.46
2016-08-22T03:50:29.382Z,1017.45
2016-08-22T03:51:29.406Z,1017.43
2016-08-22T03:52:29.433Z,1017.43
2016-08-22T03:53:29.458Z,1017.43
2016-08-22T03:54:29.480Z,1017.43
2016-08-22T03:56:29.532Z,1017.49
2016-08-22T03:57:29.556Z,1017.47
2016-08-22T03:58:29.594Z,1017.51
2016-08-22T03:59:29.610Z,1017.53
2016-08-22T04:00:29.631Z,1017.54
2016-08-22T04:01:29.653Z,1017.58
2016-08-22T04:02:29.678Z,1017.6
2016-08-22T04:03:29.707Z,1017.63
2016-08-22T04:04:29.729Z,1017.66
2016-08-22T04:05:29.757Z,1017.69
2016-08-22T04:06:29.778Z,1017.69
2016-08-22T04:07:29.801Z,1017.71
2016-08-22T04:08:29.830Z,1017.73
2016-08-22T04:09:29.852Z,1017.73
2016-08-22T04:10:29.876Z,1017.76
2016-08-22T04:11:29.899Z,1017.68
2016-08-22T04:12:29.924Z,1017.69
2016-08-22T04:13:29.949Z,1017.71
2016-08-22T04:14:29.975Z,1017.7
2016-08-22T04:15:29.999Z,1017.68
2016-08-22T04:16:30.024Z,1017.72
2016-08-22T04:17:30.059Z,1017.71
2016-08-22T04:18:30.071Z,1017.74
2016-08-22T04:19:30.097Z,1017.81
2016-08-22T04:20:30.122Z,1017.79
2016-08-22T04:21:30.145Z,1017.8
2016-08-22T04:22:30.170Z,1017.81
2016-08-22T04:23:30.198Z,1017.88
2016-08-22T04:24:30.220Z,1017.89
2016-08-22T04:25:30.246Z,1017.92
2016-08-22T04:26:30.321Z,1017.9
2016-08-22T04:28:30.320Z,1017.89
2016-08-22T04:29:30.345Z,1017.9
2016-08-22T04:30:30.370Z,1017.89
2016-08-22T04:31:30.393Z,1017.9
2016-08-22T04:32:30.418Z,1017.95
2016-08-22T04:33:30.444Z,1017.91
2016-08-22T04:34:30.469Z,1017.91
2016-08-22T04:35:30.542Z,1017.94
2016-08-22T04:36:30.519Z,1017.95
2016-08-22T04:37:30.541Z,1017.94
2016-08-22T04:38:30.568Z,1017.99
2016-08-22T04:39:30.594Z,1018.02
2016-08-22T04:40:30.616Z,1018.03
2016-08-22T04:41:30.642Z,1018.05
2016-08-22T04:42:30.666Z,1018.08
2016-08-22T04:44:30.715Z,1018.12
2016-08-22T04:45:30.740Z,1018.16
2016-08-22T04:46:30.767Z,1018.17
2016-08-22T04:47:30.792Z,1018.18
2016-08-22T04:48:30.814Z,1018.15
2016-08-22T04:49:30.843Z,1018.18
2016-08-22T04:50:30.866Z,1018.18
2016-08-22T04:51:30.892Z,1018.18
2016-08-22T04:52:30.915Z,1018.18
2016-08-22T04:53:30.938Z,1018.17
2016-08-22T04:54:30.966Z,1018.17
2016-08-22T04:55:30.991Z,1018.16
2016-08-22T04:56:31.013Z,1018.18
2016-08-22T04:57:31.041Z,1018.19
2016-08-22T04:58:31.064Z,1018.19
2016-08-22T05:00:31.113Z,1018.2
2016-08-22T05:01:31.140Z,1018.16
2016-08-22T05:02:31.163Z,1018.2
2016-08-22T05:03:31.187Z,1018.16
2016-08-22T05:04:31.214Z,1018.23
2016-08-22T05:05:31.238Z,1018.21
2016-08-22T05:06:31.265Z,1018.24
2016-08-22T05:07:31.287Z,1018.27
2016-08-22T05:08:31.312Z,1018.26
2016-08-22T05:09:31.336Z,1018.23
2016-08-22T05:10:31.365Z,1018.28
2016-08-22T05:11:31.387Z,1018.26
2016-08-22T05:12:31.413Z,1018.24
2016-08-22T05:13:31.440Z,1018.25
2016-08-22T05:14:31.463Z,1018.29
2016-08-22T05:16:31.512Z,1018.28
2016-08-22T05:17:31.538Z,1018.3
2016-08-22T05:18:31.563Z,1018.28
2016-08-22T05:19:31.593Z,1018.29
2016-08-22T05:20:31.614Z,1018.31
2016-08-22T05:21:31.638Z,1018.33
2016-08-22T05:22:31.661Z,1018.34
2016-08-22T05:23:31.689Z,1018.36
2016-08-22T05:24:31.712Z,1018.39
2016-08-22T05:25:31.737Z,1018.46
2016-08-22T05:26:31.765Z,1018.45
2016-08-22T05:27:31.790Z,1018.44
2016-08-22T05:28:31.815Z,1018.47
2016-08-22T05:29:31.839Z,1018.48
2016-08-22T05:31:31.890Z,1018.49
2016-08-22T05:32:31.916Z,1018.48
2016-08-22T05:33:31.940Z,1018.54
2016-08-22T05:34:31.965Z,1018.5
2016-08-22T05:35:31.991Z,1018.52
2016-08-22T05:36:32.015Z,1018.52
2016-08-22T05:37:32.040Z,1018.55
2016-08-22T05:38:32.119Z,1018.52
2016-08-22T05:39:32.091Z,1018.58
2016-08-22T05:40:32.169Z,1018.6
2016-08-22T05:41:32.144Z,1018.6
2016-08-22T05:42:32.169Z,1018.61
2016-08-22T05:43:32.193Z,1018.62
2016-08-22T05:44:32.221Z,1018.64
2016-08-22T05:45:32.247Z,1018.69
2016-08-22T05:46:32.272Z,1018.73
2016-08-22T05:47:32.296Z,1018.88
2016-08-22T05:48:32.321Z,1018.73
2016-08-22T05:49:32.349Z,1018.76
2016-08-22T05:50:32.372Z,1018.75
2016-08-22T05:51:32.401Z,1018.76
2016-08-22T05:52:32.424Z,1018.84
2016-08-22T05:53:32.451Z,1018.88
2016-08-22T05:54:32.475Z,1018.75
2016-08-22T05:55:32.501Z,1018.75
2016-08-22T05:56:32.530Z,1018.74
2016-08-22T05:57:32.557Z,1018.75
2016-08-22T05:58:32.579Z,1018.77
2016-08-22T05:59:32.605Z,1018.81
2016-08-22T06:00:32.632Z,1018.77
2016-08-22T06:01:32.657Z,1018.78
2016-08-22T06:03:32.712Z,1018.78
2016-08-22T06:04:32.738Z,1018.78
2016-08-22T06:05:32.761Z,1018.81
2016-08-22T06:06:32.789Z,1018.79
2016-08-22T06:07:32.815Z,1018.81
2016-08-22T06:08:32.839Z,1018.86
2016-08-22T06:09:32.866Z,1018.86
2016-08-22T06:10:32.892Z,1018.82
2016-08-22T06:11:32.920Z,1018.8
2016-08-22T06:12:32.943Z,1018.8
2016-08-22T06:13:32.972Z,1018.82
2016-08-22T06:14:32.995Z,1018.83
2016-08-22T06:15:33.024Z,1018.89
2016-08-22T06:16:33.049Z,1018.92
2016-08-22T06:17:33.077Z,1018.91
2016-08-22T06:19:33.129Z,1018.87
2016-08-22T06:20:33.155Z,1018.98
2016-08-22T06:21:33.180Z,1018.99
2016-08-22T06:22:33.206Z,1019.44
2016-08-22T06:23:33.231Z,1019.38
2016-08-22T06:24:33.259Z,1019.06
2016-08-22T06:25:33.287Z,1019.8
2016-08-22T06:26:33.315Z,1020.34
2016-08-22T06:27:33.338Z,1020.02
2016-08-22T06:28:33.368Z,1019.88
2016-08-22T06:29:33.394Z,1020.08
2016-08-22T06:30:33.425Z,1019.31
2016-08-22T06:31:33.453Z,1019.14
2016-08-22T06:32:33.482Z,1019.09
2016-08-22T06:33:33.511Z,1019.15
2016-08-22T06:35:33.567Z,1019.06
2016-08-22T06:36:33.595Z,1019.06
2016-08-22T06:37:33.627Z,1019.07
2016-08-22T06:38:33.655Z,1019.06
2016-08-22T06:39:33.683Z,1019.07
2016-08-22T06:40:33.764Z,1019.04
2016-08-22T06:41:33.743Z,1019.01
2016-08-22T06:42:33.770Z,1019.02
2016-08-22T06:43:33.797Z,1019.12
2016-08-22T06:44:33.827Z,1019.08
2016-08-22T06:45:33.854Z,1019.1
2016-08-22T06:46:33.881Z,1019.11
2016-08-22T06:47:33.912Z,1019.12
2016-08-22T06:48:33.939Z,1019.09
2016-08-22T06:49:33.966Z,1019.06
2016-08-22T06:51:34.022Z,1019.08
2016-08-22T06:52:34.052Z,1019.12
2016-08-22T06:53:34.078Z,1019.09
2016-08-22T06:54:34.107Z,1019.1
2016-08-22T06:55:34.133Z,1019.12
2016-08-22T06:56:34.163Z,1019.16
2016-08-22T06:57:34.188Z,1019.24
2016-08-22T06:58:34.216Z,1019.45
2016-08-22T06:59:34.246Z,1019.29
2016-08-22T07:00:34.273Z,1019.22
2016-08-22T07:01:34.298Z,1019.21
2016-08-22T07:02:34.329Z,1019.18
2016-08-22T07:03:34.356Z,1019.24
2016-08-22T07:04:34.384Z,1019.19
2016-08-22T07:06:34.437Z,1019.18
2016-08-22T07:07:34.466Z,1019.17
2016-08-22T07:08:34.492Z,1019.17
2016-08-22T07:09:34.520Z,1019.12
2016-08-22T07:10:34.547Z,1019.19
2016-08-22T07:11:34.576Z,1019.19
2016-08-22T07:12:34.602Z,1019.19
2016-08-22T07:13:34.630Z,1019.27
2016-08-22T07:14:34.659Z,1019.55
2016-08-22T07:15:34.684Z,1019.31
2016-08-22T07:16:34.715Z,1019.32
2016-08-22T07:17:34.739Z,1019.36
2016-08-22T07:18:34.772Z,1019.46
2016-08-22T07:19:34.794Z,1019.27
2016-08-22T07:20:34.824Z,1019.33
2016-08-22T07:21:34.852Z,1019.43
2016-08-22T07:22:34.877Z,1020.19
2016-08-22T07:23:34.904Z,1019.46
2016-08-22T07:24:34.933Z,1019.4
2016-08-22T07:25:34.961Z,1019.41
2016-08-22T07:26:34.988Z,1019.3
2016-08-22T07:27:35.020Z,1019.34
2016-08-22T07:28:35.046Z,1019.4
2016-08-22T07:29:35.077Z,1019.31
2016-08-22T07:30:35.103Z,1019.31
2016-08-22T07:31:35.134Z,1019.29
2016-08-22T07:32:35.164Z,1020.1
2016-08-22T07:33:35.189Z,1019.41
2016-08-22T07:34:35.220Z,1019.58
2016-08-22T07:35:35.249Z,1019.42
2016-08-22T07:36:35.275Z,1019.34
2016-08-22T07:38:35.334Z,1019.33
2016-08-22T07:39:35.364Z,1019.37
2016-08-22T07:40:35.392Z,1019.36
2016-08-22T07:41:35.419Z,1019.35
2016-08-22T07:42:35.448Z,1019.35
2016-08-22T07:43:35.477Z,1019.31
2016-08-22T07:44:35.505Z,1019.3
2016-08-22T07:45:35.586Z,1019.34
2016-08-22T07:46:35.564Z,1019.34
2016-08-22T07:47:35.591Z,1019.35
2016-08-22T07:48:35.618Z,1019.34
2016-08-22T07:49:35.646Z,1019.38
2016-08-22T07:50:35.678Z,1019.38
2016-08-22T07:51:35.702Z,1019.45
2016-08-22T07:52:35.732Z,1019.45
2016-08-22T07:54:35.790Z,1019.48
2016-08-22T07:55:35.817Z,1019.76
2016-08-22T07:56:35.843Z,1019.6
2016-08-22T07:57:35.872Z,1019.84
2016-08-22T07:58:35.899Z,1020.05
2016-08-22T07:59:35.929Z,1019.96
2016-08-22T08:00:35.959Z,1019.65
2016-08-22T08:01:35.985Z,1019.56
2016-08-22T08:02:36.013Z,1019.57
2016-08-22T08:03:36.043Z,1019.51
2016-08-22T08:04:36.074Z,1019.47
2016-08-22T08:05:36.103Z,1019.46
2016-08-22T08:06:36.132Z,1019.71
2016-08-22T08:07:36.160Z,1019.5
2016-08-22T08:08:36.190Z,1019.73
2016-08-22T08:10:36.250Z,1019.91
2016-08-22T08:11:36.276Z,1019.88
2016-08-22T08:12:36.308Z,1019.92
2016-08-22T08:13:36.336Z,1019.96
2016-08-22T08:14:36.365Z,1019.72
2016-08-22T08:15:36.396Z,1019.8
2016-08-22T08:16:36.427Z,1019.58
2016-08-22T08:17:36.457Z,1019.58
2016-08-22T08:18:36.489Z,1019.62
2016-08-22T08:19:36.519Z,1019.65
2016-08-22T08:20:36.551Z,1019.63
2016-08-22T08:21:36.583Z,1019.84
2016-08-22T08:22:36.613Z,1019.67
2016-08-22T08:23:36.642Z,1019.71
2016-08-22T08:24:36.672Z,1019.7
2016-08-22T08:26:36.734Z,1020.01
2016-08-22T08:27:36.767Z,1019.78
2016-08-22T08:28:36.797Z,1019.78
2016-08-22T08:29:36.826Z,1019.74
2016-08-22T08:30:36.857Z,1019.8
2016-08-22T08:31:36.887Z,1019.79
2016-08-22T08:32:36.918Z,1019.75
2016-08-22T08:33:36.950Z,1019.84
2016-08-22T08:34:36.982Z,1019.83
2016-08-22T08:35:37.012Z,1019.84
2016-08-22T08:36:37.042Z,1019.81
2016-08-22T08:37:37.073Z,1020.08
2016-08-22T08:38:37.102Z,1020.11
2016-08-22T08:39:37.135Z,1020.1
2016-08-22T08:41:37.196Z,1019.77
2016-08-22T08:42:37.225Z,1019.77
2016-08-22T08:43:37.270Z,1019.8
2016-08-22T08:44:37.289Z,1020.02
2016-08-22T08:45:37.317Z,1019.94
2016-08-22T08:46:37.350Z,1019.86
2016-08-22T08:47:37.379Z,1019.89
2016-08-22T08:48:37.413Z,1019.93
2016-08-22T08:49:37.443Z,1019.93
2016-08-22T08:50:37.475Z,1019.93
2016-08-22T08:51:37.504Z,1019.94
2016-08-22T08:52:37.538Z,1019.93
2016-08-22T08:53:37.568Z,1019.94
2016-08-22T08:54:37.603Z,1019.91
2016-08-22T08:55:37.633Z,1019.87
2016-08-22T08:56:37.666Z,1019.85
2016-08-22T08:57:37.700Z,1019.88
2016-08-22T08:58:37.731Z,1019.93
2016-08-22T08:59:37.767Z,1019.91
2016-08-22T09:00:37.799Z,1019.8
2016-08-22T09:01:37.829Z,1019.78
2016-08-22T09:02:37.865Z,1019.7
2016-08-22T09:03:37.898Z,1019.73
2016-08-22T09:04:37.929Z,1019.76
2016-08-22T09:05:37.962Z,1019.76
2016-08-22T09:06:37.994Z,1019.77
2016-08-22T09:07:38.026Z,1019.74
2016-08-22T09:08:38.057Z,1019.78
2016-08-22T09:09:38.087Z,1019.82
2016-08-22T09:10:38.119Z,1019.78
2016-08-22T09:11:38.150Z,1019.79
2016-08-22T09:13:38.213Z,1019.81
2016-08-22T09:14:38.245Z,1019.81
2016-08-22T09:15:38.275Z,1019.79
2016-08-22T09:16:38.307Z,1019.85
2016-08-22T09:17:38.340Z,1019.86
2016-08-22T09:18:38.371Z,1019.88
2016-08-22T09:19:38.399Z,1019.98
2016-08-22T09:20:38.431Z,1019.87
2016-08-22T09:21:38.461Z,1019.92
2016-08-22T09:22:38.490Z,1019.86
2016-08-22T09:23:38.520Z,1019.9
2016-08-22T09:24:38.552Z,1019.9
2016-08-22T09:25:38.583Z,1019.97
2016-08-22T09:26:38.614Z,1019.89
2016-08-22T09:27:38.646Z,1019.92
2016-08-22T09:29:38.705Z,1019.89
2016-08-22T09:30:38.737Z,1019.9
2016-08-22T09:31:38.766Z,1020.01
2016-08-22T09:32:38.799Z,1019.91
2016-08-22T09:33:38.828Z,1019.88
2016-08-22T09:34:38.861Z,1019.82
2016-08-22T09:35:38.892Z,1019.86
2016-08-22T09:36:38.923Z,1019.85
2016-08-22T09:37:38.954Z,1019.81
2016-08-22T09:38:38.985Z,1019.87
2016-08-22T09:39:39.014Z,1019.85
2016-08-22T09:40:39.047Z,1019.87
2016-08-22T09:41:39.078Z,1019.87
2016-08-22T09:42:39.109Z,1019.86
2016-08-22T09:43:39.141Z,1019.86
2016-08-22T09:45:39.199Z,1019.89
2016-08-22T09:46:39.233Z,1019.93
2016-08-22T09:47:39.264Z,1019.93
2016-08-22T09:48:39.291Z,1019.91
2016-08-22T09:49:39.325Z,1019.88
2016-08-22T09:50:39.357Z,1019.89
2016-08-22T09:51:39.387Z,1019.9
2016-08-22T09:52:39.415Z,1019.89
2016-08-22T09:53:39.446Z,1019.92
2016-08-22T09:54:39.479Z,1019.95
2016-08-22T09:55:39.510Z,1019.94
2016-08-22T09:56:39.541Z,1019.96
2016-08-22T09:57:39.569Z,1019.95
2016-08-22T09:58:39.600Z,1019.91
2016-08-22T09:59:39.633Z,1019.93
2016-08-22T10:01:39.692Z,1019.95
2016-08-22T10:02:39.727Z,1019.89
2016-08-22T10:03:39.754Z,1019.9
2016-08-22T10:04:39.789Z,1019.95
2016-08-22T10:05:39.817Z,1019.97
2016-08-22T10:06:39.847Z,1020.01
2016-08-22T10:07:39.881Z,1019.95
2016-08-22T10:08:39.910Z,1019.97
2016-08-22T10:09:39.942Z,1020
2016-08-22T10:10:39.990Z,1020.04
2016-08-22T10:11:40.006Z,1020.06
2016-08-22T10:12:40.039Z,1020.02
2016-08-22T10:13:40.071Z,1020.07
2016-08-22T10:14:40.103Z,1020.07
2016-08-22T10:16:40.165Z,1020.03
2016-08-22T10:17:40.198Z,1020.05
2016-08-22T10:18:40.231Z,1020.09
2016-08-22T10:19:40.261Z,1020.1
2016-08-22T10:20:40.295Z,1020.12
2016-08-22T10:21:40.327Z,1020.1
2016-08-22T10:22:40.360Z,1020.1
2016-08-22T10:23:40.391Z,1020.1
2016-08-22T10:24:40.421Z,1020.09
2016-08-22T10:25:40.453Z,1020.06
2016-08-22T10:26:40.486Z,1020.09
2016-08-22T10:27:40.520Z,1020.12
2016-08-22T10:28:40.549Z,1020.08
2016-08-22T10:29:40.585Z,1020.01
2016-08-22T10:30:40.615Z,1020.04
2016-08-22T10:31:40.645Z,1020
2016-08-22T10:32:40.676Z,1019.98
2016-08-22T10:33:40.710Z,1019.99
2016-08-22T10:34:40.739Z,1020.04
2016-08-22T10:35:40.770Z,1020.01
2016-08-22T10:36:40.804Z,1020.07
2016-08-22T10:37:40.836Z,1020.04
2016-08-22T10:38:40.867Z,1020.02
2016-08-22T10:39:40.898Z,1019.99
2016-08-22T10:40:40.927Z,1020.01
2016-08-22T10:41:40.958Z,1019.95
2016-08-22T10:42:40.990Z,1020
2016-08-22T10:43:41.022Z,1020.01
2016-08-22T10:44:41.059Z,1020
2016-08-22T10:45:41.086Z,1020.03
2016-08-22T10:46:41.113Z,1020.02
2016-08-22T10:48:41.178Z,1020.09
2016-08-22T10:49:41.207Z,1020.06
2016-08-22T10:50:41.244Z,1020.07
2016-08-22T10:51:41.269Z,1020.08
2016-08-22T10:52:41.300Z,1020.06
2016-08-22T10:53:41.332Z,1020.04
2016-08-22T10:54:41.363Z,1020.01
2016-08-22T10:55:41.393Z,1020.06
2016-08-22T10:56:41.427Z,1020.03
2016-08-22T10:57:41.454Z,1020.03
2016-08-22T10:58:41.488Z,1020.04
2016-08-22T10:59:41.517Z,1020.05
2016-08-22T11:00:41.551Z,1020.13
2016-08-22T11:01:41.579Z,1020.07
2016-08-22T11:02:41.611Z,1020.11
2016-08-22T11:04:41.672Z,1020.1
2016-08-22T11:05:41.704Z,1020.14
2016-08-22T11:06:41.735Z,1020.11
2016-08-22T11:07:41.764Z,1020.08
2016-08-22T11:08:41.793Z,1020.11
2016-08-22T11:09:41.826Z,1020.06
2016-08-22T11:10:41.858Z,1020.11
2016-08-22T11:11:41.888Z,1019.99
2016-08-22T11:12:41.917Z,1020.03
2016-08-22T11:13:41.949Z,1020.01
2016-08-22T11:14:41.978Z,1019.95
2016-08-22T11:15:42.007Z,1019.96
2016-08-22T11:16:42.040Z,1019.97
2016-08-22T11:17:42.068Z,1019.94
2016-08-22T11:18:42.101Z,1019.9
2016-08-22T11:20:42.159Z,1019.85
2016-08-22T11:21:42.190Z,1019.8
2016-08-22T11:22:42.222Z,1019.79
2016-08-22T11:23:42.250Z,1019.77
2016-08-22T11:24:42.283Z,1019.82
2016-08-22T11:25:42.313Z,1019.86
2016-08-22T11:26:42.344Z,1019.86
2016-08-22T11:27:42.374Z,1019.86
2016-08-22T11:28:42.403Z,1019.9
2016-08-22T11:29:42.433Z,1019.92
2016-08-22T11:30:42.463Z,1019.86
2016-08-22T11:31:42.492Z,1019.84
2016-08-22T11:32:42.526Z,1019.85
2016-08-22T11:33:42.556Z,1019.8
2016-08-22T11:34:42.583Z,1019.82
2016-08-22T11:36:42.645Z,1019.84
2016-08-22T11:37:42.674Z,1019.88
2016-08-22T11:38:42.707Z,1019.82
2016-08-22T11:39:42.737Z,1019.82
2016-08-22T11:40:42.767Z,1019.79
2016-08-22T11:41:42.797Z,1019.78
2016-08-22T11:42:42.825Z,1019.74
2016-08-22T11:43:42.856Z,1019.8
2016-08-22T11:44:42.888Z,1019.81
2016-08-22T11:45:42.923Z,1019.82
2016-08-22T11:46:42.948Z,1019.81
2016-08-22T11:47:42.979Z,1019.79
2016-08-22T11:48:43.007Z,1019.86
2016-08-22T11:49:43.039Z,1019.88
2016-08-22T11:51:43.100Z,1019.83
2016-08-22T11:52:43.128Z,1019.75
2016-08-22T11:53:43.161Z,1019.8
2016-08-22T11:54:43.192Z,1019.78
2016-08-22T11:55:43.220Z,1019.74
2016-08-22T11:56:43.250Z,1019.8
2016-08-22T11:57:43.281Z,1019.73
2016-08-22T11:58:43.312Z,1019.76
2016-08-22T11:59:43.343Z,1019.83
2016-08-22T12:00:43.424Z,1019.84
2016-08-22T12:01:43.402Z,1019.78
2016-08-22T12:02:43.435Z,1019.81
2016-08-22T12:03:43.462Z,1019.86
2016-08-22T12:04:43.493Z,1019.85
2016-08-22T12:05:43.774Z,1019.83
2016-08-22T12:06:43.557Z,1019.85
2016-08-22T12:07:43.585Z,1019.84
2016-08-22T12:08:43.614Z,1019.82
2016-08-22T12:09:43.646Z,1019.85
2016-08-22T12:10:43.674Z,1019.87
2016-08-22T12:11:43.706Z,1019.92
2016-08-22T12:12:43.735Z,1019.93
2016-08-22T12:13:43.769Z,1019.94
2016-08-22T12:14:43.797Z,1019.9
2016-08-22T12:15:43.826Z,1019.94
2016-08-22T12:16:43.856Z,1019.93
2016-08-22T12:17:43.888Z,1019.91
2016-08-22T12:18:43.917Z,1019.93
2016-08-22T12:19:43.946Z,1019.96
2016-08-22T12:20:43.979Z,1019.96
2016-08-22T12:21:44.006Z,1019.96
2016-08-22T12:23:44.069Z,1020.01
2016-08-22T12:24:44.099Z,1019.95
2016-08-22T12:25:44.129Z,1019.95
2016-08-22T12:26:44.157Z,1019.99
2016-08-22T12:27:44.189Z,1020
2016-08-22T12:28:44.218Z,1020.01
2016-08-22T12:29:44.250Z,1020.01
2016-08-22T12:30:44.277Z,1020.02
2016-08-22T12:31:44.308Z,1019.96
2016-08-22T12:32:44.340Z,1020.03
2016-08-22T12:33:44.571Z,1020
2016-08-22T12:34:44.400Z,1020
2016-08-22T12:35:44.431Z,1020
2016-08-22T12:36:44.461Z,1019.99
2016-08-22T12:37:44.491Z,1020.01
2016-08-22T12:39:44.554Z,1019.96
2016-08-22T12:40:44.583Z,1019.97
2016-08-22T12:41:44.612Z,1019.92
2016-08-22T12:42:44.644Z,1019.97
2016-08-22T12:43:44.671Z,1019.93
2016-08-22T12:44:44.702Z,1019.95
2016-08-22T12:45:44.732Z,1019.95
2016-08-22T12:46:44.767Z,1020
2016-08-22T12:47:44.790Z,1020.05
2016-08-22T12:48:44.825Z,1020.03
2016-08-22T12:49:44.854Z,1019.99